Time;durP1;ratioP1;P1;durP2;ratioP2;P2;SDS_P1;SDS_P2;PMS_P1;PMS_P2;Temp;Humidity;BMP_temperature;BMP_pressure;BME280_temperature;BME280_humidity;BME280_pressure;Samples;Min_cycle;Max_cycle;Signal;HPM_P1;HPM_P2
2022/04/27 00:00:28;;;;;;;0.20;0.20;;;;;;;20.50;41.19;101839.44;5137813;27;20062;-25
2022/04/27 00:02:58;;;;;;;0.20;0.20;;;;;;;20.50;40.92;101845.78;5118662;27;20058;-25
2022/04/27 00:05:25;;;;;;;0.20;0.20;;;;;;;20.49;40.98;101841.38;5144491;27;20049;-25
2022/04/27 00:07:50;;;;;;;0.20;0.20;;;;;;;20.49;41.15;101846.06;5136433;27;20562;-24
2022/04/27 00:10:19;;;;;;;0.20;0.20;;;;;;;20.49;41.00;101837.75;5120333;28;20042;-23
2022/04/27 00:12:45;;;;;;;0.20;0.20;;;;;;;20.48;41.26;101836.94;5144636;27;20055;-25
2022/04/27 00:15:11;;;;;;;0.10;0.10;;;;;;;20.49;41.23;101840.53;5134060;27;20066;-25
2022/04/27 00:17:37;;;;;;;0.20;0.20;;;;;;;20.49;41.04;101841.38;5136068;27;20434;-25
2022/04/27 00:20:04;;;;;;;0.10;0.10;;;;;;;20.49;41.24;101841.38;5109831;27;20493;-24
2022/04/27 00:22:30;;;;;;;0.20;0.20;;;;;;;20.48;41.11;101844.41;5139035;27;20473;-25
2022/04/27 00:25:00;;;;;;;0.20;0.20;;;;;;;20.49;41.07;101848.84;5142012;27;20039;-24
2022/04/27 00:27:27;;;;;;;0.20;0.20;;;;;;;20.48;41.16;101849.94;5131268;27;20130;-25
2022/04/27 00:29:53;;;;;;;0.20;0.20;;;;;;;20.49;41.11;101851.59;5141388;27;20078;-25
2022/04/27 00:32:18;;;;;;;0.10;0.10;;;;;;;20.48;41.33;101847.19;5136929;27;20082;-24
2022/04/27 00:34:44;;;;;;;0.20;0.20;;;;;;;20.48;41.19;101853.53;5144799;27;20050;-24
2022/04/27 00:37:10;;;;;;;0.10;0.10;;;;;;;20.47;41.18;101849.09;5131534;27;20043;-24
2022/04/27 00:39:35;;;;;;;0.20;0.20;;;;;;;20.48;41.01;101849.94;5147984;27;20041;-24
2022/04/27 00:42:21;;;;;;;0.10;0.10;;;;;;;20.47;40.90;101854.63;5140225;27;20047;-24
2022/04/27 00:44:47;;;;;;;0.17;0.17;;;;;;;20.47;41.35;101848.25;5128701;27;20078;-24
2022/04/27 00:47:14;;;;;;;0.20;0.20;;;;;;;20.47;41.32;101851.84;5117535;27;20070;-24
2022/04/27 00:49:43;;;;;;;0.13;0.13;;;;;;;20.47;41.21;101851.03;5131764;27;20524;-24
2022/04/27 00:52:12;;;;;;;0.20;0.20;;;;;;;20.47;41.02;101853.78;5136976;27;20115;-25
2022/04/27 00:54:40;;;;;;;0.20;0.20;;;;;;;20.46;41.32;101849.31;5139378;27;20524;-24
2022/04/27 00:57:06;;;;;;;0.10;0.10;;;;;;;20.46;41.01;101852.94;5139453;27;20077;-25
2022/04/27 00:59:32;;;;;;;0.10;0.10;;;;;;;20.47;41.03;101854.63;5121708;27;20130;-25
2022/04/27 01:01:58;;;;;;;0.20;0.20;;;;;;;20.47;41.06;101856.56;5137949;27;20096;-25
2022/04/27 01:04:23;;;;;;;0.20;0.20;;;;;;;20.46;41.18;101861.22;5136804;27;20461;-25
2022/04/27 01:06:49;;;;;;;0.20;0.20;;;;;;;20.46;40.92;101855.69;5135679;27;20054;-25
2022/04/27 01:09:16;;;;;;;0.20;0.20;;;;;;;20.46;41.05;101860.41;5141600;27;20043;-24
2022/04/27 01:11:42;;;;;;;0.10;0.10;;;;;;;20.46;41.43;101860.41;5133556;27;20553;-25
2022/04/27 01:14:08;;;;;;;0.20;0.20;;;;;;;20.45;41.22;101859.56;5135904;27;20054;-24
2022/04/27 01:16:33;;;;;;;0.20;0.20;;;;;;;20.45;41.01;101862.34;5147075;27;20039;-24
2022/04/27 01:19:00;;;;;;;0.20;0.20;;;;;;;20.45;40.82;101869.81;5135042;27;20049;-24
2022/04/27 01:21:28;;;;;;;0.20;0.20;;;;;;;20.45;41.08;101867.03;5138145;27;20135;-25
2022/04/27 01:23:54;;;;;;;0.20;0.20;;;;;;;20.46;41.22;101868.69;5136501;27;20090;-24
2022/04/27 01:26:20;;;;;;;0.20;0.20;;;;;;;20.44;41.06;101871.75;5139419;27;20352;-24
2022/04/27 01:28:46;;;;;;;0.20;0.20;;;;;;;20.44;41.14;101863.44;5135538;27;20035;-24
2022/04/27 01:31:11;;;;;;;0.20;0.20;;;;;;;20.45;41.34;101861.50;5137212;27;20050;-25
2022/04/27 01:33:38;;;;;;;0.20;0.20;;;;;;;20.45;41.33;101869.81;5136017;27;20397;-25
2022/04/27 01:36:06;;;;;;;0.20;0.20;;;;;;;20.44;41.11;101871.75;5144628;27;20105;-24
2022/04/27 01:38:34;;;;;;;0.10;0.10;;;;;;;20.43;41.37;101877.56;5130165;27;20535;-25
2022/04/27 01:40:59;;;;;;;0.15;0.15;;;;;;;20.44;41.37;101880.03;5142821;27;20077;-24
2022/04/27 01:43:25;;;;;;;0.20;0.20;;;;;;;20.44;41.23;101879.22;5138858;27;20042;-24
2022/04/27 01:45:51;;;;;;;0.20;0.20;;;;;;;20.43;41.29;101874.78;5132205;27;20046;-24
2022/04/27 01:48:17;;;;;;;0.10;0.10;;;;;;;20.43;41.20;101883.91;5136255;27;20542;-25
2022/04/27 01:50:43;;;;;;;0.20;0.20;;;;;;;20.42;41.03;101882.25;5141073;27;20047;-24
2022/04/27 01:55:54;;;;;;;0.10;0.10;;;;;;;20.43;41.06;101883.09;5115625;27;20074;-24
2022/04/27 01:58:20;;;;;;;0.20;0.20;;;;;;;20.43;41.09;101891.38;5142363;27;20044;-24
2022/04/27 02:00:47;;;;;;;0.20;0.20;;;;;;;20.42;41.26;101893.31;5101782;27;20054;-25
2022/04/27 02:03:14;;;;;;;0.20;0.20;;;;;;;20.41;41.11;101897.16;5137892;27;20074;-24
2022/04/27 02:05:41;;;;;;;0.10;0.10;;;;;;;20.42;41.04;101895.22;5138299;27;20070;-25
2022/04/27 02:08:07;;;;;;;0.20;0.20;;;;;;;20.43;41.05;101900.53;5136812;27;20050;-24
2022/04/27 02:10:34;;;;;;;0.20;0.20;;;;;;;20.42;41.40;101900.75;5119742;27;20069;-25
2022/04/27 02:13:05;;;;;;;0.10;0.10;;;;;;;20.43;41.04;101905.22;5132690;27;20079;-24
2022/04/27 02:15:31;;;;;;;0.10;0.10;;;;;;;20.42;41.00;101901.63;5122545;27;20043;-24
2022/04/27 02:17:56;;;;;;;0.15;0.15;;;;;;;20.41;41.11;101907.41;5137762;27;20477;-25
2022/04/27 02:20:23;;;;;;;0.10;0.10;;;;;;;20.41;41.32;101904.63;5132696;27;20046;-24
2022/04/27 02:22:49;;;;;;;0.20;0.20;;;;;;;20.42;41.38;101911.84;5133557;27;20078;-23
2022/04/27 02:25:14;;;;;;;0.20;0.20;;;;;;;20.42;41.05;101906.28;5118333;27;20073;-25
2022/04/27 02:27:41;;;;;;;0.10;0.10;;;;;;;20.41;41.11;101911.00;5131344;27;20183;-25
2022/04/27 02:30:08;;;;;;;0.20;0.20;;;;;;;20.41;41.30;101918.47;5141759;27;20092;-24
2022/04/27 02:32:34;;;;;;;0.20;0.20;;;;;;;20.41;41.10;101919.31;5135655;27;20454;-25
2022/04/27 02:35:00;;;;;;;0.20;0.20;;;;;;;20.41;41.33;101921.25;5138693;27;20082;-24
2022/04/27 02:37:25;;;;;;;0.20;0.20;;;;;;;20.40;41.14;101914.88;5136407;27;20132;-25
2022/04/27 02:39:51;;;;;;;0.20;0.20;;;;;;;20.40;41.20;101923.16;5132647;27;20047;-24
2022/04/27 02:42:17;;;;;;;0.20;0.20;;;;;;;20.40;41.04;101923.16;5133601;27;20051;-24
2022/04/27 02:44:44;;;;;;;0.20;0.20;;;;;;;20.40;41.10;101931.47;5133606;27;20074;-24
2022/04/27 02:47:09;;;;;;;0.20;0.20;;;;;;;20.40;41.17;101933.41;5143196;27;20070;-24
2022/04/27 02:52:20;;;;;;;0.20;0.20;;;;;;;20.41;41.28;101932.31;5123132;27;20461;-24
2022/04/27 02:54:46;;;;;;;0.20;0.20;;;;;;;20.40;41.07;101936.19;5142421;27;20057;-24
2022/04/27 02:57:12;;;;;;;0.10;0.10;;;;;;;20.40;41.08;101936.19;5136989;27;20560;-24
2022/04/27 02:59:37;;;;;;;0.10;0.10;;;;;;;20.39;41.23;101937.28;5142757;27;20457;-23
2022/04/27 03:02:03;;;;;;;0.20;0.20;;;;;;;20.40;41.12;101941.72;5144002;27;20039;-24
2022/04/27 03:04:29;;;;;;;0.20;0.20;;;;;;;20.38;41.32;101930.06;5141272;27;20039;-24
2022/04/27 03:06:55;;;;;;;0.20;0.20;;;;;;;20.39;41.25;101928.97;5116674;27;20545;-24
2022/04/27 03:09:20;;;;;;;0.20;0.20;;;;;;;20.39;41.30;101929.81;5136995;27;20066;-24
2022/04/27 03:11:46;;;;;;;0.20;0.20;;;;;;;20.38;41.32;101928.16;5142452;27;20045;-25
2022/04/27 03:14:12;;;;;;;0.20;0.20;;;;;;;20.39;41.49;101923.44;5138365;27;20072;-23
2022/04/27 03:16:37;;;;;;;0.20;0.20;;;;;;;20.38;41.21;101928.16;5140649;27;20125;-23
2022/04/27 03:19:03;;;;;;;0.20;0.20;;;;;;;20.38;41.12;101930.06;5136385;27;20043;-25
2022/04/27 03:21:29;;;;;;;0.20;0.20;;;;;;;20.37;41.15;101932.00;5137482;27;20450;-24
2022/04/27 03:23:56;;;;;;;0.20;0.20;;;;;;;20.38;41.26;101942.00;5145765;27;20062;-24
2022/04/27 03:26:22;;;;;;;0.20;0.20;;;;;;;20.38;41.23;101941.13;5123674;27;20078;-24
2022/04/27 03:28:47;;;;;;;0.20;0.20;;;;;;;20.37;41.04;101945.81;5139491;27;20070;-23
2022/04/27 03:31:13;;;;;;;0.20;0.20;;;;;;;20.37;41.05;101942.22;5138634;27;20066;-24
2022/04/27 03:33:39;;;;;;;0.10;0.10;;;;;;;20.37;41.39;101940.28;5139106;27;20065;-24
2022/04/27 03:36:07;;;;;;;0.10;0.10;;;;;;;20.37;41.08;101945.00;5141177;27;20103;-24
2022/04/27 03:38:32;;;;;;;0.10;0.10;;;;;;;20.36;41.06;101938.63;5138439;27;20039;-25
2022/04/27 03:40:58;;;;;;;0.10;0.10;;;;;;;20.37;41.19;101954.13;5140722;27;20054;-24
2022/04/27 03:43:23;;;;;;;0.20;0.20;;;;;;;20.36;41.31;101949.69;5135046;27;20130;-25
2022/04/27 03:45:49;;;;;;;0.20;0.20;;;;;;;20.37;41.09;101951.34;5135740;27;20293;-24
2022/04/27 03:48:15;;;;;;;0.20;0.20;;;;;;;20.37;41.35;101954.13;5140368;27;20039;-24
2022/04/27 03:50:41;;;;;;;0.20;0.20;;;;;;;20.37;41.59;101962.44;5142027;27;20042;-24
2022/04/27 03:53:06;;;;;;;0.10;0.10;;;;;;;20.37;41.30;101958.84;5136723;27;20039;-24
2022/04/27 03:55:33;;;;;;;0.20;0.20;;;;;;;20.36;41.07;101965.47;5144579;27;20544;-24
2022/04/27 03:58:01;;;;;;;0.20;0.20;;;;;;;20.35;41.44;101967.41;5120328;27;20093;-24
2022/04/27 04:00:27;;;;;;;0.20;0.20;;;;;;;20.36;41.47;101969.06;5126695;27;20179;-24
2022/04/27 04:02:52;;;;;;;0.20;0.20;;;;;;;20.36;41.27;101977.38;5141826;27;20447;-24
2022/04/27 04:05:18;;;;;;;0.20;0.20;;;;;;;20.36;41.05;101974.59;5143017;27;20126;-24
2022/04/27 04:07:44;;;;;;;0.20;0.20;;;;;;;20.37;41.08;101972.66;5142364;27;20043;-24
2022/04/27 04:10:10;;;;;;;0.20;0.20;;;;;;;20.35;41.29;101972.09;5135423;27;20246;-24
2022/04/27 04:12:36;;;;;;;0.20;0.20;;;;;;;20.35;41.19;101975.69;5136370;27;20452;-25
2022/04/27 04:15:02;;;;;;;0.20;0.20;;;;;;;20.35;41.36;101972.94;5138149;27;20053;-25
2022/04/27 04:17:28;;;;;;;0.10;0.10;;;;;;;20.36;41.17;101982.06;5104242;27;20517;-25
2022/04/27 04:19:53;;;;;;;0.10;0.10;;;;;;;20.34;41.23;101976.81;5134870;27;20047;-23
2022/04/27 04:22:19;;;;;;;0.20;0.20;;;;;;;20.34;41.36;101982.34;5139045;27;20438;-24
2022/04/27 04:30:16;;;;;;;0.20;0.20;;;;;;;20.34;41.08;101981.50;5113007;27;20074;-24
2022/04/27 04:32:42;;;;;;;0.20;0.20;;;;;;;20.34;41.09;101979.56;5140350;27;20043;-24
2022/04/27 04:35:08;;;;;;;0.20;0.20;;;;;;;20.33;41.22;101985.34;5143748;27;20043;-25
2022/04/27 04:37:34;;;;;;;0.20;0.20;;;;;;;20.34;41.22;101998.09;5138342;27;20050;-24
2022/04/27 04:39:59;;;;;;;0.10;0.10;;;;;;;20.34;41.12;101990.66;5137288;27;20466;-24
2022/04/27 04:42:27;;;;;;;0.10;0.10;;;;;;;20.35;41.13;101994.25;5135273;27;20475;-24
2022/04/27 04:44:52;;;;;;;0.20;0.20;;;;;;;20.33;41.37;102002.78;5141051;27;20126;-24
2022/04/27 04:47:18;;;;;;;0.20;0.20;;;;;;;20.33;41.35;102008.31;5136780;27;20039;-25
2022/04/27 04:49:43;;;;;;;0.20;0.20;;;;;;;20.33;40.94;102005.53;5126085;27;20537;-24
2022/04/27 04:52:10;;;;;;;0.10;0.10;;;;;;;20.33;41.24;102004.72;5134984;27;20050;-24
2022/04/27 04:54:35;;;;;;;0.10;0.10;;;;;;;20.33;41.53;102013.00;5141075;27;20082;-24
2022/04/27 04:57:02;;;;;;;0.13;0.13;;;;;;;20.34;41.32;102009.19;5140236;27;20043;-24
2022/04/27 04:59:34;;;;;;;0.20;0.20;;;;;;;20.34;41.10;102014.72;5117909;27;20046;-24
2022/04/27 05:01:59;;;;;;;0.10;0.10;;;;;;;20.33;41.26;102022.16;5133872;27;20039;-24
2022/04/27 05:04:26;;;;;;;0.20;0.20;;;;;;;20.31;41.25;102018.81;5134184;27;20142;-25
2022/04/27 05:06:51;;;;;;;0.10;0.10;;;;;;;20.33;41.14;102021.31;5141194;27;20131;-25
2022/04/27 05:09:17;;;;;;;0.20;0.20;;;;;;;20.32;41.36;102019.66;5137238;27;20034;-25
2022/04/27 05:11:43;;;;;;;0.17;0.17;;;;;;;20.32;41.09;102022.41;5139155;27;20051;-24
2022/04/27 05:14:09;;;;;;;0.20;0.20;;;;;;;20.33;41.21;102024.09;5144485;27;20457;-25
2022/04/27 05:16:36;;;;;;;0.20;0.20;;;;;;;20.31;41.44;102029.88;5135272;27;20050;-24
2022/04/27 05:19:07;;;;;;;0.20;0.20;;;;;;;20.32;41.58;102039.03;5129962;27;20039;-24
2022/04/27 05:21:32;;;;;;;0.20;0.20;;;;;;;20.32;41.36;102033.50;5136095;27;20395;-24
2022/04/27 05:23:58;;;;;;;0.10;0.10;;;;;;;20.31;41.40;102035.41;5141266;27;20039;-24
2022/04/27 05:26:24;;;;;;;0.20;0.20;;;;;;;20.31;40.98;102043.72;5137413;27;20051;-24
2022/04/27 05:32:06;;;;;;;0.20;0.20;;;;;;;20.32;41.23;102052.84;5118186;27;20075;-24
2022/04/27 05:34:21;;;;;;;0.20;0.20;;;;;;;20.31;41.26;102049.25;5123029;27;20550;-24
2022/04/27 05:36:47;;;;;;;0.20;0.20;;;;;;;20.30;41.27;102055.88;5142718;27;20497;-23
2022/04/27 05:39:12;;;;;;;0.10;0.10;;;;;;;20.32;41.17;102052.84;5122198;28;20084;-24
2022/04/27 05:41:38;;;;;;;0.20;0.20;;;;;;;20.30;41.10;102062.25;5132700;27;20081;-24
2022/04/27 05:44:09;;;;;;;0.20;0.20;;;;;;;20.30;41.23;102055.88;5118140;27;20071;-24
2022/04/27 05:46:35;;;;;;;0.20;0.20;;;;;;;20.30;41.36;102064.19;5116550;27;20139;-24
2022/04/27 05:49:01;;;;;;;0.20;0.20;;;;;;;20.30;41.17;102078.03;5098981;27;20146;-24
2022/04/27 05:51:27;;;;;;;0.20;0.20;;;;;;;20.30;41.26;102073.31;5100325;27;20607;-23
2022/04/27 05:53:53;;;;;;;0.20;0.20;;;;;;;20.29;41.12;102079.09;5112769;27;20104;-24
2022/04/27 05:56:19;;;;;;;0.20;0.20;;;;;;;20.29;41.28;102071.66;5114457;27;20436;-24
2022/04/27 05:58:45;;;;;;;0.20;0.20;;;;;;;20.30;41.29;102081.63;5112269;27;20114;-24
2022/04/27 06:01:11;;;;;;;0.20;0.20;;;;;;;20.29;41.38;102077.19;5109466;27;20490;-24
2022/04/27 06:03:38;;;;;;;0.20;0.20;;;;;;;20.28;41.08;102081.03;5102185;27;20312;-25
2022/04/27 06:06:04;;;;;;;0.20;0.20;;;;;;;20.30;41.11;102083.56;5112638;27;20054;-24
2022/04/27 06:08:30;;;;;;;0.10;0.10;;;;;;;20.30;41.13;102083.56;5103415;27;20039;-24
2022/04/27 06:10:55;;;;;;;0.20;0.20;;;;;;;20.28;41.41;102083.78;5117240;27;20050;-25
2022/04/27 06:13:21;;;;;;;0.20;0.20;;;;;;;20.29;41.33;102090.16;5116297;27;20100;-24
2022/04/27 06:15:46;;;;;;;0.20;0.20;;;;;;;20.29;41.29;102084.63;5115490;27;20048;-24
2022/04/27 06:18:12;;;;;;;0.20;0.20;;;;;;;20.28;40.87;102083.78;5108973;27;20055;-25
2022/04/27 06:20:38;;;;;;;0.20;0.20;;;;;;;20.28;41.12;102094.84;5120481;27;20046;-24
2022/04/27 06:23:04;;;;;;;0.20;0.20;;;;;;;20.28;41.19;102094.03;5114125;27;20046;-24
2022/04/27 06:25:30;;;;;;;0.20;0.20;;;;;;;20.28;41.11;102094.03;5118220;27;20435;-25
2022/04/27 06:27:56;;;;;;;0.20;0.20;;;;;;;20.29;41.36;102095.69;5120721;27;20465;-25
2022/04/27 06:30:24;;;;;;;0.20;0.20;;;;;;;20.01;38.97;102094.84;5118003;27;20043;-25
2022/04/27 06:32:51;;;;;;;0.20;0.20;;;;;;;20.20;39.93;102094.50;5118446;27;20871;-25
2022/04/27 06:35:16;;;;;;;0.20;0.20;;;;;;;20.25;40.31;102098.16;5123313;27;20135;-24
2022/04/27 06:37:42;;;;;;;0.17;0.17;;;;;;;20.26;40.36;102085.16;5094243;27;20130;-25
2022/04/27 06:40:09;;;;;;;0.20;0.20;;;;;;;20.28;40.25;102096.78;5116625;27;20082;-25
2022/04/27 06:42:35;;;;;;;0.20;0.20;;;;;;;20.27;40.59;102092.38;5112929;27;20134;-24
2022/04/27 06:45:02;;;;;;;0.20;0.20;;;;;;;20.29;40.52;102098.47;5109546;27;20516;-24
2022/04/27 06:47:28;;;;;;;0.20;0.20;;;;;;;20.29;40.36;102099.31;5099942;27;20127;-25
2022/04/27 06:49:53;;;;;;;0.20;0.20;;;;;;;20.29;40.38;102099.31;5112509;27;20390;-24
2022/04/27 06:52:19;;;;;;;0.20;0.20;;;;;;;20.30;40.70;102102.91;5119016;27;20035;-24
2022/04/27 06:54:45;;;;;;;0.10;0.10;;;;;;;20.32;40.59;102105.41;5116533;27;20119;-25
2022/04/27 06:57:11;;;;;;;0.20;0.20;;;;;;;20.32;40.39;102105.41;5078879;28;20044;-24
2022/04/27 06:59:36;;;;;;;0.20;0.20;;;;;;;20.32;40.71;102111.78;5096612;27;20533;-26
2022/04/27 07:02:04;;;;;;;0.20;0.20;;;;;;;20.33;40.38;102104.31;5114139;27;20043;-26
2022/04/27 07:04:31;;;;;;;0.20;0.20;;;;;;;20.33;40.29;102116.22;5111623;27;20043;-26
2022/04/27 07:06:57;;;;;;;0.20;0.20;;;;;;;20.35;40.51;102113.19;5104289;27;21504;-26
2022/04/27 07:09:23;;;;;;;0.20;0.20;;;;;;;20.35;40.13;102116.81;5100203;27;20082;-26
2022/04/27 07:11:49;;;;;;;0.20;0.20;;;;;;;20.37;40.43;102119.28;5108771;27;20043;-25
2022/04/27 07:14:16;;;;;;;0.20;0.20;;;;;;;20.36;40.15;102121.22;5095077;27;20047;-26
2022/04/27 07:16:42;;;;;;;0.20;0.20;;;;;;;20.37;40.27;102114.59;5111213;27;20114;-26
2022/04/27 07:19:08;;;;;;;0.20;0.20;;;;;;;20.39;40.62;102119.88;5096901;27;20118;-26
2022/04/27 07:21:34;;;;;;;0.20;0.20;;;;;;;20.40;40.25;102118.78;5114334;27;20047;-26
2022/04/27 07:24:02;;;;;;;0.20;0.20;;;;;;;20.40;40.12;102116.84;5116962;27;20043;-26
2022/04/27 07:26:28;;;;;;;0.10;0.10;;;;;;;20.42;40.17;102122.09;5118191;27;20129;-26
2022/04/27 07:28:55;;;;;;;0.20;0.20;;;;;;;20.42;40.35;102124.88;5118440;27;20086;-26
2022/04/27 07:31:22;;;;;;;0.20;0.20;;;;;;;20.43;40.04;102121.88;5122184;27;20177;-26
2022/04/27 07:33:47;;;;;;;0.20;0.20;;;;;;;20.43;40.36;102126.56;5096895;27;20486;-26
2022/04/27 07:36:13;;;;;;;0.20;0.20;;;;;;;20.44;40.17;102129.06;5115364;27;20130;-26
2022/04/27 07:38:39;;;;;;;0.20;0.20;;;;;;;20.45;40.25;102129.91;5106756;27;20047;-26
2022/04/27 07:41:07;;;;;;;0.20;0.20;;;;;;;20.45;40.10;102130.72;5118004;27;20050;-27
2022/04/27 07:43:32;;;;;;;0.20;0.20;;;;;;;20.45;40.19;102130.72;5095448;27;21715;-26
2022/04/27 07:45:58;;;;;;;0.20;0.20;;;;;;;20.45;40.30;102141.81;5095838;27;20039;-26
2022/04/27 07:48:24;;;;;;;0.20;0.20;;;;;;;20.46;40.09;102135.16;5103318;27;20542;-26
2022/04/27 07:50:49;;;;;;;0.20;0.20;;;;;;;20.45;40.41;102136.25;5076721;28;20423;-26
2022/04/27 07:53:16;;;;;;;0.17;0.17;;;;;;;20.45;40.28;102136.25;5120578;27;20047;-27
2022/04/27 07:55:41;;;;;;;0.20;0.20;;;;;;;20.47;40.26;102144.31;5108893;27;20184;-25
2022/04/27 07:58:07;;;;;;;0.20;0.20;;;;;;;20.45;40.38;102140.97;5115193;27;20051;-25
2022/04/27 08:00:33;;;;;;;0.20;0.20;;;;;;;20.46;40.26;102145.41;5113083;27;20062;-27
2022/04/27 08:02:58;;;;;;;0.20;0.20;;;;;;;20.45;40.08;102146.50;5115180;27;20047;-26
2022/04/27 08:05:25;;;;;;;0.20;0.20;;;;;;;20.45;40.33;102144.56;5110741;27;20539;-26
2022/04/27 08:07:50;;;;;;;0.20;0.20;;;;;;;20.45;40.40;102141.81;5111305;27;20598;-25
2022/04/27 08:10:18;;;;;;;0.20;0.20;;;;;;;20.45;40.34;102147.34;5114810;27;20056;-25
2022/04/27 08:12:47;;;;;;;0.20;0.20;;;;;;;20.44;40.06;102148.44;5090109;27;20707;-26
2022/04/27 08:15:14;;;;;;;0.20;0.20;;;;;;;20.45;40.27;102149.28;5096209;28;20138;-26
2022/04/27 08:18:00;;;;;;;0.20;0.20;;;;;;;20.45;40.19;102152.03;5114768;27;20115;-27
2022/04/27 08:23:21;;;;;;;0.20;0.20;;;;;;;20.44;40.19;102170.56;5082361;27;20082;-26
2022/04/27 08:25:47;;;;;;;0.20;0.20;;;;;;;20.44;40.34;102166.97;5108339;27;20048;-26
2022/04/27 08:28:13;;;;;;;0.15;0.15;;;;;;;20.44;40.26;102172.50;5075248;27;20527;-26
2022/04/27 08:30:41;;;;;;;0.20;0.20;;;;;;;20.43;40.42;102168.91;5079868;28;20147;-25
2022/04/27 08:33:07;;;;;;;0.10;0.10;;;;;;;20.43;40.18;102170.84;5113305;27;20196;-26
2022/04/27 08:35:33;;;;;;;0.20;0.20;;;;;;;20.43;40.14;102168.91;5093737;27;20138;-26
2022/04/27 08:38:00;;;;;;;0.20;0.20;;;;;;;20.43;40.12;102174.44;5068213;27;20134;-27
2022/04/27 08:40:25;;;;;;;0.20;0.20;;;;;;;20.43;40.05;102171.69;5106006;27;20130;-26
2022/04/27 08:42:52;;;;;;;0.20;0.20;;;;;;;20.42;40.01;102178.31;5107401;27;20061;-25
2022/04/27 08:45:18;;;;;;;0.20;0.20;;;;;;;20.43;40.27;102179.16;5110782;27;20127;-26
2022/04/27 08:47:45;;;;;;;0.20;0.20;;;;;;;20.42;40.27;102175.53;5094075;27;20090;-26
2022/04/27 08:50:13;;;;;;;0.10;0.10;;;;;;;20.42;40.17;102177.44;5106903;27;20096;-26
2022/04/27 08:52:40;;;;;;;0.20;0.20;;;;;;;20.42;40.10;102172.78;5112729;27;20078;-25
2022/04/27 08:55:07;;;;;;;0.20;0.20;;;;;;;20.41;40.10;102173.84;5092862;27;20353;-26
2022/04/27 08:57:33;;;;;;;0.20;0.20;;;;;;;20.41;40.22;102171.09;5109662;27;20130;-25
2022/04/27 08:59:58;;;;;;;0.20;0.20;;;;;;;20.41;40.24;102179.38;5106811;27;20094;-26
2022/04/27 09:02:26;;;;;;;0.20;0.20;;;;;;;20.42;40.01;102182.97;5112964;27;20047;-28
2022/04/27 09:05:09;;;;;;;0.20;0.20;;;;;;;20.41;40.14;102178.56;5094216;27;20060;-26
2022/04/27 09:07:37;;;;;;;0.20;0.20;;;;;;;20.41;40.27;102186.84;5082570;27;20134;-26
2022/04/27 09:10:03;;;;;;;0.20;0.20;;;;;;;20.41;40.13;102184.91;5113459;27;20550;-25
2022/04/27 09:12:29;;;;;;;0.20;0.20;;;;;;;20.41;40.27;102189.63;5092292;27;22485;-25
2022/04/27 09:15:04;;;;;;;0.20;0.20;;;;;;;20.41;40.20;102187.69;5094122;27;20053;-26
2022/04/27 09:20:49;;;;;;;0.20;0.20;;;;;;;20.08;35.90;102191.44;5090444;27;20111;-32
2022/04/27 09:23:02;;;;;;;0.20;0.20;;;;;;;20.20;38.13;102197.66;5101634;27;20069;-26
2022/04/27 09:25:36;;;;;;;0.20;0.20;;;;;;;20.31;38.22;102195.88;5107444;27;20489;-27
2022/04/27 09:28:23;;;;;;;0.20;0.20;;;;;;;20.35;38.41;102196.19;5083668;27;20065;-25
2022/04/27 09:30:50;;;;;;;0.17;0.17;;;;;;;20.23;37.24;102182.50;5092422;27;20467;-28
2022/04/27 09:33:36;;;;;;;0.20;0.20;;;;;;;20.38;38.38;102191.00;5111764;27;20047;-27
2022/04/27 09:36:18;;;;;;;0.10;0.10;;;;;;;20.43;38.45;102191.03;5099892;27;20150;-26
2022/04/27 09:38:44;;;;;;;0.20;0.20;;;;;;;20.44;38.58;102192.72;5110591;27;20195;-27
2022/04/27 09:41:09;;;;;;;0.17;0.17;;;;;;;20.46;38.99;102187.75;5115618;27;20047;-26
2022/04/27 09:43:47;;;;;;;0.10;0.10;;;;;;;20.47;38.85;102183.06;5115307;27;20050;-26
2022/04/27 09:46:19;;;;;;;0.10;0.10;;;;;;;20.49;39.09;102201.09;5115586;27;20530;-26
2022/04/27 09:48:46;;;;;;;0.20;0.20;;;;;;;20.50;38.91;102188.09;5113265;27;20052;-27
2022/04/27 09:51:13;;;;;;;0.20;0.20;;;;;;;20.50;38.60;102188.94;5114111;27;20137;-26
2022/04/27 09:53:42;;;;;;;0.20;0.20;;;;;;;20.51;39.22;102196.16;5121386;27;20099;-26
2022/04/27 09:56:10;;;;;;;0.20;0.20;;;;;;;20.45;38.11;102183.31;5086162;27;20077;-27
2022/04/27 09:58:43;;;;;;;0.20;0.20;;;;;;;20.53;38.06;102187.59;5094941;27;20169;-27
2022/04/27 10:01:11;;;;;;;0.20;0.20;;;;;;;20.56;38.72;102186.25;5113597;27;20356;-26
2022/04/27 10:03:46;;;;;;;0.20;0.20;;;;;;;20.57;38.37;102191.50;5117632;27;20083;-26
2022/04/27 10:06:12;;;;;;;0.20;0.20;;;;;;;20.57;38.93;102185.97;5095793;27;20043;-26
2022/04/27 10:08:39;;;;;;;0.13;0.13;;;;;;;20.59;38.85;102182.94;5111767;27;21622;-26
2022/04/27 10:11:07;;;;;;;0.20;0.20;;;;;;;20.60;38.67;102185.47;5113914;27;20074;-26
2022/04/27 10:13:32;;;;;;;0.10;0.10;;;;;;;20.62;38.71;102185.19;5116670;27;20172;-26
2022/04/27 10:15:58;;;;;;;0.15;0.15;;;;;;;20.64;38.81;102180.22;5117525;27;20066;-27
2022/04/27 10:18:24;;;;;;;0.20;0.20;;;;;;;20.65;38.88;102179.16;5117154;27;20078;-26
2022/04/27 10:20:51;;;;;;;0.20;0.20;;;;;;;20.64;38.79;102175.53;5115121;27;20039;-26
2022/04/27 10:23:27;;;;;;;0.10;0.10;;;;;;;20.64;39.08;102175.53;5117511;27;20393;-26
2022/04/27 10:26:14;;;;;;;0.20;0.20;;;;;;;20.66;38.74;102167.81;5097623;27;20566;-28
2022/04/27 10:28:56;;;;;;;0.20;0.20;;;;;;;20.67;38.82;102175.00;5084811;27;20506;-26
2022/04/27 10:34:20;;;;;;;0.20;0.20;;;;;;;20.69;38.64;102166.44;5153435;27;20460;-30
2022/04/27 10:36:48;;;;;;;0.20;0.20;;;;;;;20.70;38.85;102181.97;5152360;27;20085;-31
2022/04/27 10:39:16;;;;;;;0.20;0.20;;;;;;;20.71;39.02;102176.16;5133086;27;20142;-31
2022/04/27 10:42:02;;;;;;;0.10;0.10;;;;;;;20.73;38.71;102178.69;5147370;27;20131;-30
2022/04/27 10:44:51;;;;;;;0.20;0.20;;;;;;;20.65;37.24;102171.66;5134094;27;20129;-32
2022/04/27 10:47:18;;;;;;;0.20;0.20;;;;;;;20.57;37.23;102169.38;5131641;27;20453;-33
2022/04/27 10:49:47;;;;;;;0.15;0.15;;;;;;;20.68;37.86;102171.16;5125161;27;20164;-33
2022/04/27 10:52:13;;;;;;;0.20;0.20;;;;;;;20.71;37.70;102178.91;5150712;27;20070;-31
2022/04/27 10:54:40;;;;;;;0.10;0.10;;;;;;;20.74;38.34;102170.09;5154151;27;20114;-30
2022/04/27 11:00:06;;;;;;;0.10;0.10;;;;;;;20.76;38.45;102176.19;5151307;27;20205;-29
2022/04/27 11:02:53;;;;;;;0.20;0.20;;;;;;;20.78;38.28;102174.03;5125329;27;20059;-28
2022/04/27 11:05:20;;;;;;;0.20;0.20;;;;;;;20.79;37.76;102177.63;5139307;27;20449;-29
2022/04/27 11:08:09;;;;;;;0.20;0.20;;;;;;;20.80;38.00;102173.75;5135270;27;20097;-30
2022/04/27 11:10:38;;;;;;;0.20;0.20;;;;;;;20.82;38.45;102171.56;5119013;27;20130;-29
2022/04/27 11:13:05;;;;;;;0.20;0.20;;;;;;;20.80;38.37;102171.81;5131600;27;20137;-29
2022/04/27 11:15:30;;;;;;;0.20;0.20;;;;;;;20.82;38.18;102171.56;5112195;27;20182;-32
2022/04/27 11:18:01;;;;;;;0.20;0.20;;;;;;;20.83;38.31;102172.41;5130535;27;20066;-28
2022/04/27 11:20:30;;;;;;;0.20;0.20;;;;;;;20.85;38.38;102172.97;5116057;27;20043;-28
2022/04/27 11:22:57;;;;;;;0.20;0.20;;;;;;;20.86;38.28;102167.19;5137853;27;20357;-31
2022/04/27 11:25:31;;;;;;;0.10;0.10;;;;;;;20.91;38.33;102167.22;5130093;27;20066;-30
2022/04/27 11:27:59;;;;;;;0.17;0.17;;;;;;;20.95;38.53;102171.13;5139986;27;20075;-31
2022/04/27 11:30:26;;;;;;;0.10;0.10;;;;;;;20.95;38.34;102173.06;5135167;27;20145;-33
2022/04/27 11:32:52;;;;;;;0.20;0.20;;;;;;;20.94;38.47;102175.00;5135159;27;20134;-31
2022/04/27 11:35:21;;;;;;;0.10;0.10;;;;;;;20.95;38.60;102171.13;5110146;27;20209;-30
2022/04/27 11:37:47;;;;;;;0.10;0.10;;;;;;;20.95;38.39;102167.53;5122741;27;20198;-30
2022/04/27 11:40:17;;;;;;;0.20;0.20;;;;;;;20.64;33.78;102158.94;5111835;28;20437;-37
2022/04/27 11:42:46;;;;;;;0.40;0.40;;;;;;;20.83;37.17;102161.31;5118586;28;20080;-32
2022/04/27 11:45:13;;;;;;;0.20;0.20;;;;;;;20.98;37.62;102159.53;5102746;28;20120;-30
2022/04/27 11:47:39;;;;;;;0.10;0.10;;;;;;;20.81;35.46;102153.25;5115521;28;20079;-40
2022/04/27 11:50:06;;;;;;;0.10;0.10;;;;;;;20.89;36.62;102160.25;5098556;28;20126;-31